sensor_id;sensor_type;location;lat;lon;timestamp;P1;durP1;ratioP1;P2;durP2;ratioP2
7181;SDS011;3632;42.724;23.298;2023-12-29T00:02:24;58.50;;;37.17;;
7181;SDS011;3632;42.724;23.298;2023-12-29T00:04:51;59.03;;;35.37;;
7181;SDS011;3632;42.724;23.298;2023-12-29T00:07:18;57.07;;;37.17;;
7181;SDS011;3632;42.724;23.298;2023-12-29T00:09:44;58.77;;;37.37;;
7181;SDS011;3632;42.724;23.298;2023-12-29T00:12:11;60.80;;;38.03;;
7181;SDS011;3632;42.724;23.298;2023-12-29T00:14:38;79.73;;;47.47;;
7181;SDS011;3632;42.724;23.298;2023-12-29T00:17:05;70.50;;;42.30;;
7181;SDS011;3632;42.724;23.298;2023-12-29T00:19:32;71.90;;;42.03;;
7181;SDS011;3632;42.724;23.298;2023-12-29T00:21:59;68.13;;;42.67;;
7181;SDS011;3632;42.724;23.298;2023-12-29T00:24:28;67.50;;;41.80;;
7181;SDS011;3632;42.724;23.298;2023-12-29T00:26:56;68.60;;;43.20;;
7181;SDS011;3632;42.724;23.298;2023-12-29T00:29:23;62.50;;;38.57;;
7181;SDS011;3632;42.724;23.298;2023-12-29T00:31:49;66.57;;;40.37;;
7181;SDS011;3632;42.724;23.298;2023-12-29T00:34:16;66.20;;;39.83;;
7181;SDS011;3632;42.724;23.298;2023-12-29T00:36:44;60.37;;;36.73;;
7181;SDS011;3632;42.724;23.298;2023-12-29T00:39:11;60.43;;;35.50;;
7181;SDS011;3632;42.724;23.298;2023-12-29T00:41:38;56.07;;;35.20;;
7181;SDS011;3632;42.724;23.298;2023-12-29T00:44:06;50.47;;;33.13;;
7181;SDS011;3632;42.724;23.298;2023-12-29T00:46:33;52.40;;;34.50;;
7181;SDS011;3632;42.724;23.298;2023-12-29T00:49:00;62.57;;;35.27;;
7181;SDS011;3632;42.724;23.298;2023-12-29T00:51:26;64.20;;;38.83;;
7181;SDS011;3632;42.724;23.298;2023-12-29T00:53:54;60.77;;;39.17;;
7181;SDS011;3632;42.724;23.298;2023-12-29T00:56:21;67.53;;;39.23;;
7181;SDS011;3632;42.724;23.298;2023-12-29T00:58:48;69.33;;;40.13;;
7181;SDS011;3632;42.724;23.298;2023-12-29T01:01:14;75.67;;;49.13;;
7181;SDS011;3632;42.724;23.298;2023-12-29T01:03:41;74.57;;;45.93;;
7181;SDS011;3632;42.724;23.298;2023-12-29T01:06:08;77.07;;;48.03;;
7181;SDS011;3632;42.724;23.298;2023-12-29T01:08:35;75.57;;;46.30;;
7181;SDS011;3632;42.724;23.298;2023-12-29T01:11:03;67.47;;;42.40;;
7181;SDS011;3632;42.724;23.298;2023-12-29T01:13:30;72.73;;;45.80;;
7181;SDS011;3632;42.724;23.298;2023-12-29T01:15:56;65.87;;;42.77;;
7181;SDS011;3632;42.724;23.298;2023-12-29T01:18:23;70.10;;;44.03;;
7181;SDS011;3632;42.724;23.298;2023-12-29T01:20:50;69.30;;;42.63;;
7181;SDS011;3632;42.724;23.298;2023-12-29T01:23:16;68.80;;;40.77;;
7181;SDS011;3632;42.724;23.298;2023-12-29T01:25:43;66.20;;;40.07;;
7181;SDS011;3632;42.724;23.298;2023-12-29T01:28:11;59.90;;;40.10;;
7181;SDS011;3632;42.724;23.298;2023-12-29T01:30:38;64.70;;;39.30;;
7181;SDS011;3632;42.724;23.298;2023-12-29T01:33:05;54.70;;;37.30;;
7181;SDS011;3632;42.724;23.298;2023-12-29T01:35:31;56.20;;;35.23;;
7181;SDS011;3632;42.724;23.298;2023-12-29T01:37:58;62.27;;;37.37;;
7181;SDS011;3632;42.724;23.298;2023-12-29T01:40:26;66.37;;;38.53;;
7181;SDS011;3632;42.724;23.298;2023-12-29T01:42:52;76.30;;;47.63;;
7181;SDS011;3632;42.724;23.298;2023-12-29T01:45:21;75.60;;;45.83;;
7181;SDS011;3632;42.724;23.298;2023-12-29T01:47:51;86.63;;;52.30;;
7181;SDS011;3632;42.724;23.298;2023-12-29T01:50:18;102.03;;;61.73;;
7181;SDS011;3632;42.724;23.298;2023-12-29T01:52:49;107.10;;;64.20;;
7181;SDS011;3632;42.724;23.298;2023-12-29T01:55:19;99.53;;;59.47;;
7181;SDS011;3632;42.724;23.298;2023-12-29T01:57:47;87.47;;;51.60;;
7181;SDS011;3632;42.724;23.298;2023-12-29T02:00:15;76.47;;;46.90;;
7181;SDS011;3632;42.724;23.298;2023-12-29T02:02:44;77.67;;;47.13;;
7181;SDS011;3632;42.724;23.298;2023-12-29T02:05:13;75.70;;;47.10;;
7181;SDS011;3632;42.724;23.298;2023-12-29T02:07:41;73.73;;;45.67;;
7181;SDS011;3632;42.724;23.298;2023-12-29T02:10:08;75.20;;;45.23;;
7181;SDS011;3632;42.724;23.298;2023-12-29T02:12:35;74.97;;;46.60;;
7181;SDS011;3632;42.724;23.298;2023-12-29T02:15:02;84.83;;;50.10;;
7181;SDS011;3632;42.724;23.298;2023-12-29T02:17:31;79.50;;;47.53;;
7181;SDS011;3632;42.724;23.298;2023-12-29T02:20:06;76.63;;;47.67;;
7181;SDS011;3632;42.724;23.298;2023-12-29T02:22:34;64.77;;;40.53;;
7181;SDS011;3632;42.724;23.298;2023-12-29T02:25:02;71.10;;;41.23;;
7181;SDS011;3632;42.724;23.298;2023-12-29T02:27:32;71.63;;;43.80;;
7181;SDS011;3632;42.724;23.298;2023-12-29T02:30:09;72.87;;;43.43;;
7181;SDS011;3632;42.724;23.298;2023-12-29T02:32:39;69.87;;;43.13;;
7181;SDS011;3632;42.724;23.298;2023-12-29T02:35:08;59.90;;;38.30;;
7181;SDS011;3632;42.724;23.298;2023-12-29T02:37:37;65.07;;;39.40;;
7181;SDS011;3632;42.724;23.298;2023-12-29T02:40:08;65.13;;;38.97;;
7181;SDS011;3632;42.724;23.298;2023-12-29T02:42:35;82.47;;;47.60;;
7181;SDS011;3632;42.724;23.298;2023-12-29T02:45:02;74.77;;;43.43;;
7181;SDS011;3632;42.724;23.298;2023-12-29T02:47:29;65.30;;;41.43;;
7181;SDS011;3632;42.724;23.298;2023-12-29T02:49:56;74.10;;;43.90;;
7181;SDS011;3632;42.724;23.298;2023-12-29T02:52:23;76.20;;;46.23;;
7181;SDS011;3632;42.724;23.298;2023-12-29T02:54:50;82.33;;;48.63;;
7181;SDS011;3632;42.724;23.298;2023-12-29T02:57:18;72.07;;;43.97;;
7181;SDS011;3632;42.724;23.298;2023-12-29T02:59:44;71.50;;;43.87;;
7181;SDS011;3632;42.724;23.298;2023-12-29T03:02:11;70.90;;;41.83;;
7181;SDS011;3632;42.724;23.298;2023-12-29T03:04:38;69.13;;;41.73;;
7181;SDS011;3632;42.724;23.298;2023-12-29T03:07:04;67.07;;;43.23;;
7181;SDS011;3632;42.724;23.298;2023-12-29T03:09:31;68.77;;;41.40;;
7181;SDS011;3632;42.724;23.298;2023-12-29T03:11:57;67.53;;;41.77;;
7181;SDS011;3632;42.724;23.298;2023-12-29T03:14:25;67.20;;;40.97;;
7181;SDS011;3632;42.724;23.298;2023-12-29T03:16:52;69.17;;;40.63;;
7181;SDS011;3632;42.724;23.298;2023-12-29T03:19:19;71.83;;;42.80;;
7181;SDS011;3632;42.724;23.298;2023-12-29T03:21:46;64.07;;;40.50;;
7181;SDS011;3632;42.724;23.298;2023-12-29T03:24:12;77.27;;;43.80;;
7181;SDS011;3632;42.724;23.298;2023-12-29T03:26:39;69.97;;;41.17;;
7181;SDS011;3632;42.724;23.298;2023-12-29T03:29:06;72.03;;;43.13;;
7181;SDS011;3632;42.724;23.298;2023-12-29T03:31:34;68.13;;;40.97;;
7181;SDS011;3632;42.724;23.298;2023-12-29T03:34:01;72.07;;;42.77;;
7181;SDS011;3632;42.724;23.298;2023-12-29T03:36:28;72.80;;;42.47;;
7181;SDS011;3632;42.724;23.298;2023-12-29T03:38:54;68.80;;;41.80;;
7181;SDS011;3632;42.724;23.298;2023-12-29T03:41:21;68.30;;;41.63;;
7181;SDS011;3632;42.724;23.298;2023-12-29T03:43:47;65.93;;;40.57;;
7181;SDS011;3632;42.724;23.298;2023-12-29T03:46:15;67.53;;;43.23;;
7181;SDS011;3632;42.724;23.298;2023-12-29T03:48:44;70.23;;;41.83;;
7181;SDS011;3632;42.724;23.298;2023-12-29T03:51:11;70.13;;;42.60;;
7181;SDS011;3632;42.724;23.298;2023-12-29T03:53:37;71.97;;;43.67;;
7181;SDS011;3632;42.724;23.298;2023-12-29T03:56:04;67.03;;;43.60;;
7181;SDS011;3632;42.724;23.298;2023-12-29T03:58:31;67.47;;;42.47;;
7181;SDS011;3632;42.724;23.298;2023-12-29T04:00:58;70.97;;;42.13;;
7181;SDS011;3632;42.724;23.298;2023-12-29T04:03:24;71.37;;;43.07;;
7181;SDS011;3632;42.724;23.298;2023-12-29T04:05:53;68.13;;;42.73;;
7181;SDS011;3632;42.724;23.298;2023-12-29T04:08:19;74.27;;;44.83;;
7181;SDS011;3632;42.724;23.298;2023-12-29T04:10:46;70.93;;;43.00;;
7181;SDS011;3632;42.724;23.298;2023-12-29T04:13:13;81.47;;;48.83;;
7181;SDS011;3632;42.724;23.298;2023-12-29T04:15:40;84.03;;;49.73;;
7181;SDS011;3632;42.724;23.298;2023-12-29T04:18:06;77.73;;;48.67;;
7181;SDS011;3632;42.724;23.298;2023-12-29T04:20:33;80.73;;;50.70;;
7181;SDS011;3632;42.724;23.298;2023-12-29T04:23:02;81.63;;;51.10;;
7181;SDS011;3632;42.724;23.298;2023-12-29T04:25:30;78.07;;;48.20;;
7181;SDS011;3632;42.724;23.298;2023-12-29T04:27:57;71.30;;;46.57;;
7181;SDS011;3632;42.724;23.298;2023-12-29T04:30:23;78.17;;;45.13;;
7181;SDS011;3632;42.724;23.298;2023-12-29T04:32:50;72.83;;;45.67;;
7181;SDS011;3632;42.724;23.298;2023-12-29T04:35:17;73.73;;;46.00;;
7181;SDS011;3632;42.724;23.298;2023-12-29T04:37:44;69.00;;;44.30;;
7181;SDS011;3632;42.724;23.298;2023-12-29T04:40:12;74.43;;;46.53;;
7181;SDS011;3632;42.724;23.298;2023-12-29T04:42:39;71.73;;;45.20;;
7181;SDS011;3632;42.724;23.298;2023-12-29T04:45:06;71.83;;;47.30;;
7181;SDS011;3632;42.724;23.298;2023-12-29T04:47:33;73.53;;;44.37;;
7181;SDS011;3632;42.724;23.298;2023-12-29T04:49:59;74.07;;;44.43;;
7181;SDS011;3632;42.724;23.298;2023-12-29T04:52:27;71.27;;;46.00;;
7181;SDS011;3632;42.724;23.298;2023-12-29T04:54:54;71.87;;;45.50;;
7181;SDS011;3632;42.724;23.298;2023-12-29T04:57:22;77.20;;;47.10;;
7181;SDS011;3632;42.724;23.298;2023-12-29T04:59:48;75.17;;;48.27;;
7181;SDS011;3632;42.724;23.298;2023-12-29T05:02:15;75.37;;;46.70;;
7181;SDS011;3632;42.724;23.298;2023-12-29T05:04:44;78.80;;;45.23;;
7181;SDS011;3632;42.724;23.298;2023-12-29T05:07:11;76.30;;;44.97;;
7181;SDS011;3632;42.724;23.298;2023-12-29T05:09:38;71.73;;;45.40;;
7181;SDS011;3632;42.724;23.298;2023-12-29T05:12:04;74.33;;;45.50;;
7181;SDS011;3632;42.724;23.298;2023-12-29T05:14:33;78.07;;;46.33;;
7181;SDS011;3632;42.724;23.298;2023-12-29T05:16:59;79.43;;;49.27;;
7181;SDS011;3632;42.724;23.298;2023-12-29T05:19:26;81.67;;;49.83;;
7181;SDS011;3632;42.724;23.298;2023-12-29T05:21:53;75.60;;;44.53;;
7181;SDS011;3632;42.724;23.298;2023-12-29T05:24:19;76.77;;;45.17;;
7181;SDS011;3632;42.724;23.298;2023-12-29T05:26:46;68.80;;;43.63;;
7181;SDS011;3632;42.724;23.298;2023-12-29T05:29:13;59.33;;;37.63;;
7181;SDS011;3632;42.724;23.298;2023-12-29T05:31:41;57.97;;;33.50;;
7181;SDS011;3632;42.724;23.298;2023-12-29T05:34:08;50.63;;;32.17;;
7181;SDS011;3632;42.724;23.298;2023-12-29T05:36:34;62.07;;;32.63;;
7181;SDS011;3632;42.724;23.298;2023-12-29T05:39:03;58.50;;;34.00;;
7181;SDS011;3632;42.724;23.298;2023-12-29T05:41:30;56.20;;;31.43;;
7181;SDS011;3632;42.724;23.298;2023-12-29T05:43:56;59.30;;;32.33;;
7181;SDS011;3632;42.724;23.298;2023-12-29T05:46:23;58.07;;;33.83;;
7181;SDS011;3632;42.724;23.298;2023-12-29T05:48:52;56.73;;;32.40;;
7181;SDS011;3632;42.724;23.298;2023-12-29T05:51:18;65.67;;;33.67;;
7181;SDS011;3632;42.724;23.298;2023-12-29T05:53:46;59.13;;;37.17;;
7181;SDS011;3632;42.724;23.298;2023-12-29T05:56:13;57.00;;;35.20;;
7181;SDS011;3632;42.724;23.298;2023-12-29T05:58:40;133.20;;;77.67;;
7181;SDS011;3632;42.724;23.298;2023-12-29T06:01:07;67.50;;;41.43;;
7181;SDS011;3632;42.724;23.298;2023-12-29T06:03:34;60.23;;;35.77;;
7181;SDS011;3632;42.724;23.298;2023-12-29T06:06:03;64.77;;;38.63;;
7181;SDS011;3632;42.724;23.298;2023-12-29T06:08:30;74.53;;;40.27;;
7181;SDS011;3632;42.724;23.298;2023-12-29T06:10:57;69.67;;;42.53;;
7181;SDS011;3632;42.724;23.298;2023-12-29T06:13:24;75.67;;;43.83;;
7181;SDS011;3632;42.724;23.298;2023-12-29T06:15:50;70.97;;;39.67;;
7181;SDS011;3632;42.724;23.298;2023-12-29T06:18:17;83.20;;;46.80;;
7181;SDS011;3632;42.724;23.298;2023-12-29T06:20:44;84.13;;;46.37;;
7181;SDS011;3632;42.724;23.298;2023-12-29T06:23:12;82.73;;;46.10;;
7181;SDS011;3632;42.724;23.298;2023-12-29T06:25:39;89.40;;;50.37;;
7181;SDS011;3632;42.724;23.298;2023-12-29T06:28:06;69.60;;;41.67;;
7181;SDS011;3632;42.724;23.298;2023-12-29T06:30:33;65.43;;;39.83;;
7181;SDS011;3632;42.724;23.298;2023-12-29T06:33:00;57.90;;;36.10;;
7181;SDS011;3632;42.724;23.298;2023-12-29T06:35:27;53.87;;;30.67;;
7181;SDS011;3632;42.724;23.298;2023-12-29T06:37:54;49.03;;;27.77;;
7181;SDS011;3632;42.724;23.298;2023-12-29T06:40:22;42.70;;;26.13;;
7181;SDS011;3632;42.724;23.298;2023-12-29T06:42:49;51.83;;;26.93;;
7181;SDS011;3632;42.724;23.298;2023-12-29T06:45:16;50.83;;;27.53;;
7181;SDS011;3632;42.724;23.298;2023-12-29T06:47:43;57.90;;;29.80;;
7181;SDS011;3632;42.724;23.298;2023-12-29T06:50:10;56.97;;;28.70;;
7181;SDS011;3632;42.724;23.298;2023-12-29T06:52:38;50.20;;;29.00;;
7181;SDS011;3632;42.724;23.298;2023-12-29T06:55:05;61.27;;;32.60;;
7181;SDS011;3632;42.724;23.298;2023-12-29T06:57:34;63.47;;;32.13;;
7181;SDS011;3632;42.724;23.298;2023-12-29T07:00:01;64.50;;;32.17;;
7181;SDS011;3632;42.724;23.298;2023-12-29T07:02:29;85.77;;;36.73;;
7181;SDS011;3632;42.724;23.298;2023-12-29T07:04:55;81.23;;;35.57;;
7181;SDS011;3632;42.724;23.298;2023-12-29T07:07:22;82.43;;;34.50;;
7181;SDS011;3632;42.724;23.298;2023-12-29T07:09:49;80.47;;;37.33;;
7181;SDS011;3632;42.724;23.298;2023-12-29T07:12:16;84.17;;;37.57;;
7181;SDS011;3632;42.724;23.298;2023-12-29T07:14:44;76.07;;;35.33;;
7181;SDS011;3632;42.724;23.298;2023-12-29T07:17:11;78.57;;;35.77;;
7181;SDS011;3632;42.724;23.298;2023-12-29T07:19:38;79.57;;;35.90;;
7181;SDS011;3632;42.724;23.298;2023-12-29T07:22:05;76.87;;;35.27;;
7181;SDS011;3632;42.724;23.298;2023-12-29T07:24:32;74.07;;;32.87;;
7181;SDS011;3632;42.724;23.298;2023-12-29T07:27:00;68.33;;;34.10;;
7181;SDS011;3632;42.724;23.298;2023-12-29T07:29:27;75.27;;;36.73;;
7181;SDS011;3632;42.724;23.298;2023-12-29T07:31:55;73.83;;;36.20;;
7181;SDS011;3632;42.724;23.298;2023-12-29T07:34:22;78.70;;;36.57;;
7181;SDS011;3632;42.724;23.298;2023-12-29T07:36:49;80.63;;;36.20;;
7181;SDS011;3632;42.724;23.298;2023-12-29T07:39:16;64.47;;;34.47;;
7181;SDS011;3632;42.724;23.298;2023-12-29T07:41:44;58.27;;;32.60;;
7181;SDS011;3632;42.724;23.298;2023-12-29T07:44:11;54.67;;;29.83;;
7181;SDS011;3632;42.724;23.298;2023-12-29T07:46:39;50.57;;;29.30;;
7181;SDS011;3632;42.724;23.298;2023-12-29T07:49:08;47.70;;;28.43;;
7181;SDS011;3632;42.724;23.298;2023-12-29T07:51:38;55.57;;;30.40;;
7181;SDS011;3632;42.724;23.298;2023-12-29T07:54:05;58.10;;;30.73;;
7181;SDS011;3632;42.724;23.298;2023-12-29T07:56:32;51.80;;;30.57;;
7181;SDS011;3632;42.724;23.298;2023-12-29T07:58:59;51.93;;;29.27;;
7181;SDS011;3632;42.724;23.298;2023-12-29T08:01:26;58.43;;;30.37;;
7181;SDS011;3632;42.724;23.298;2023-12-29T08:03:52;58.60;;;29.90;;
7181;SDS011;3632;42.724;23.298;2023-12-29T08:06:20;53.63;;;31.00;;
7181;SDS011;3632;42.724;23.298;2023-12-29T08:08:47;60.67;;;32.10;;
7181;SDS011;3632;42.724;23.298;2023-12-29T08:11:13;52.73;;;29.60;;
7181;SDS011;3632;42.724;23.298;2023-12-29T08:13:42;57.20;;;29.70;;
7181;SDS011;3632;42.724;23.298;2023-12-29T08:16:09;54.57;;;30.63;;
7181;SDS011;3632;42.724;23.298;2023-12-29T08:18:36;48.67;;;29.70;;
7181;SDS011;3632;42.724;23.298;2023-12-29T08:21:03;55.97;;;29.17;;
7181;SDS011;3632;42.724;23.298;2023-12-29T08:23:32;50.30;;;28.43;;
7181;SDS011;3632;42.724;23.298;2023-12-29T08:25:58;50.23;;;29.43;;
7181;SDS011;3632;42.724;23.298;2023-12-29T08:28:25;46.83;;;28.47;;
7181;SDS011;3632;42.724;23.298;2023-12-29T08:30:52;53.10;;;29.27;;
7181;SDS011;3632;42.724;23.298;2023-12-29T08:33:19;49.73;;;28.50;;
7181;SDS011;3632;42.724;23.298;2023-12-29T08:35:45;48.47;;;28.97;;
7181;SDS011;3632;42.724;23.298;2023-12-29T08:38:12;49.03;;;30.57;;
7181;SDS011;3632;42.724;23.298;2023-12-29T08:40:41;48.33;;;29.93;;
7181;SDS011;3632;42.724;23.298;2023-12-29T08:43:08;46.77;;;29.50;;
7181;SDS011;3632;42.724;23.298;2023-12-29T08:45:34;52.13;;;28.90;;
7181;SDS011;3632;42.724;23.298;2023-12-29T08:48:01;50.30;;;31.33;;
7181;SDS011;3632;42.724;23.298;2023-12-29T08:50:28;50.27;;;31.23;;
7181;SDS011;3632;42.724;23.298;2023-12-29T08:52:55;46.90;;;31.20;;
7181;SDS011;3632;42.724;23.298;2023-12-29T08:55:21;44.90;;;30.43;;
7181;SDS011;3632;42.724;23.298;2023-12-29T08:57:50;53.90;;;31.97;;
7181;SDS011;3632;42.724;23.298;2023-12-29T09:00:16;51.93;;;31.57;;
7181;SDS011;3632;42.724;23.298;2023-12-29T09:02:43;56.00;;;31.87;;
7181;SDS011;3632;42.724;23.298;2023-12-29T09:05:11;48.33;;;31.10;;
7181;SDS011;3632;42.724;23.298;2023-12-29T09:07:38;48.27;;;30.47;;
7181;SDS011;3632;42.724;23.298;2023-12-29T09:10:05;49.50;;;33.57;;
7181;SDS011;3632;42.724;23.298;2023-12-29T09:12:35;53.43;;;34.23;;
7181;SDS011;3632;42.724;23.298;2023-12-29T09:15:04;56.60;;;34.13;;
7181;SDS011;3632;42.724;23.298;2023-12-29T09:17:32;55.77;;;37.40;;
7181;SDS011;3632;42.724;23.298;2023-12-29T09:19:58;61.67;;;40.27;;
7181;SDS011;3632;42.724;23.298;2023-12-29T09:22:25;51.87;;;36.83;;
7181;SDS011;3632;42.724;23.298;2023-12-29T09:24:54;56.70;;;38.67;;
7181;SDS011;3632;42.724;23.298;2023-12-29T09:27:21;58.30;;;39.13;;
7181;SDS011;3632;42.724;23.298;2023-12-29T09:29:48;58.10;;;40.50;;
7181;SDS011;3632;42.724;23.298;2023-12-29T09:32:16;53.43;;;39.47;;
7181;SDS011;3632;42.724;23.298;2023-12-29T09:34:43;59.07;;;42.63;;
7181;SDS011;3632;42.724;23.298;2023-12-29T09:37:10;60.07;;;41.40;;
7181;SDS011;3632;42.724;23.298;2023-12-29T09:39:36;57.13;;;40.33;;
7181;SDS011;3632;42.724;23.298;2023-12-29T09:42:03;56.10;;;39.13;;
7181;SDS011;3632;42.724;23.298;2023-12-29T09:44:31;59.77;;;35.67;;
7181;SDS011;3632;42.724;23.298;2023-12-29T09:47:02;50.53;;;34.20;;
7181;SDS011;3632;42.724;23.298;2023-12-29T09:49:34;46.63;;;33.67;;
7181;SDS011;3632;42.724;23.298;2023-12-29T09:52:04;44.83;;;31.90;;
7181;SDS011;3632;42.724;23.298;2023-12-29T09:54:33;47.57;;;33.73;;
7181;SDS011;3632;42.724;23.298;2023-12-29T09:57:02;47.30;;;33.27;;
7181;SDS011;3632;42.724;23.298;2023-12-29T09:59:30;47.30;;;33.20;;
7181;SDS011;3632;42.724;23.298;2023-12-29T10:02:01;50.57;;;34.07;;
7181;SDS011;3632;42.724;23.298;2023-12-29T10:04:29;53.20;;;36.57;;
7181;SDS011;3632;42.724;23.298;2023-12-29T10:06:58;55.27;;;39.17;;
7181;SDS011;3632;42.724;23.298;2023-12-29T10:09:31;54.97;;;38.87;;
7181;SDS011;3632;42.724;23.298;2023-12-29T10:12:00;52.40;;;38.00;;
7181;SDS011;3632;42.724;23.298;2023-12-29T10:14:30;58.17;;;40.13;;
7181;SDS011;3632;42.724;23.298;2023-12-29T10:17:06;52.87;;;38.90;;
7181;SDS011;3632;42.724;23.298;2023-12-29T10:19:39;60.17;;;41.30;;
7181;SDS011;3632;42.724;23.298;2023-12-29T10:22:11;60.83;;;42.07;;
7181;SDS011;3632;42.724;23.298;2023-12-29T10:24:44;62.60;;;41.17;;
7181;SDS011;3632;42.724;23.298;2023-12-29T10:27:12;62.23;;;42.93;;
7181;SDS011;3632;42.724;23.298;2023-12-29T10:29:39;59.67;;;43.40;;
7181;SDS011;3632;42.724;23.298;2023-12-29T10:32:05;57.80;;;42.37;;
7181;SDS011;3632;42.724;23.298;2023-12-29T10:34:34;56.47;;;42.13;;
7181;SDS011;3632;42.724;23.298;2023-12-29T10:37:01;56.07;;;44.73;;
7181;SDS011;3632;42.724;23.298;2023-12-29T10:39:33;57.83;;;44.63;;
7181;SDS011;3632;42.724;23.298;2023-12-29T10:42:04;63.07;;;44.37;;
7181;SDS011;3632;42.724;23.298;2023-12-29T10:44:33;58.60;;;44.17;;
7181;SDS011;3632;42.724;23.298;2023-12-29T10:47:07;55.37;;;42.93;;
7181;SDS011;3632;42.724;23.298;2023-12-29T10:49:34;58.27;;;44.07;;
7181;SDS011;3632;42.724;23.298;2023-12-29T10:52:03;54.40;;;42.63;;
7181;SDS011;3632;42.724;23.298;2023-12-29T10:54:39;56.40;;;42.23;;
7181;SDS011;3632;42.724;23.298;2023-12-29T10:57:07;53.83;;;41.73;;
7181;SDS011;3632;42.724;23.298;2023-12-29T10:59:36;53.90;;;41.67;;
7181;SDS011;3632;42.724;23.298;2023-12-29T11:02:03;59.17;;;41.60;;
7181;SDS011;3632;42.724;23.298;2023-12-29T11:04:30;53.97;;;41.60;;
7181;SDS011;3632;42.724;23.298;2023-12-29T11:06:57;52.67;;;41.37;;
7181;SDS011;3632;42.724;23.298;2023-12-29T11:09:27;56.03;;;41.40;;
7181;SDS011;3632;42.724;23.298;2023-12-29T11:11:56;55.70;;;43.30;;
7181;SDS011;3632;42.724;23.298;2023-12-29T11:14:25;54.70;;;43.60;;
7181;SDS011;3632;42.724;23.298;2023-12-29T11:16:54;51.90;;;42.63;;
7181;SDS011;3632;42.724;23.298;2023-12-29T11:19:21;48.23;;;41.33;;
7181;SDS011;3632;42.724;23.298;2023-12-29T11:21:48;53.10;;;43.90;;
7181;SDS011;3632;42.724;23.298;2023-12-29T11:24:18;55.50;;;44.30;;
7181;SDS011;3632;42.724;23.298;2023-12-29T11:26:45;47.90;;;42.43;;
7181;SDS011;3632;42.724;23.298;2023-12-29T11:29:14;52.83;;;42.67;;
7181;SDS011;3632;42.724;23.298;2023-12-29T11:31:41;53.93;;;41.63;;
7181;SDS011;3632;42.724;23.298;2023-12-29T11:34:11;50.20;;;41.40;;
7181;SDS011;3632;42.724;23.298;2023-12-29T11:36:50;51.30;;;42.33;;
7181;SDS011;3632;42.724;23.298;2023-12-29T11:39:24;53.43;;;44.03;;
7181;SDS011;3632;42.724;23.298;2023-12-29T11:41:56;47.07;;;42.07;;
7181;SDS011;3632;42.724;23.298;2023-12-29T11:44:30;51.67;;;42.93;;
7181;SDS011;3632;42.724;23.298;2023-12-29T11:46:58;53.50;;;41.33;;
7181;SDS011;3632;42.724;23.298;2023-12-29T11:49:25;56.97;;;43.97;;
7181;SDS011;3632;42.724;23.298;2023-12-29T11:51:52;53.47;;;42.47;;
7181;SDS011;3632;42.724;23.298;2023-12-29T11:54:21;50.47;;;41.53;;
7181;SDS011;3632;42.724;23.298;2023-12-29T11:56:48;52.60;;;42.20;;
7181;SDS011;3632;42.724;23.298;2023-12-29T11:59:16;61.70;;;44.33;;
7181;SDS011;3632;42.724;23.298;2023-12-29T12:01:48;54.63;;;43.57;;
7181;SDS011;3632;42.724;23.298;2023-12-29T12:04:34;51.03;;;44.53;;
7181;SDS011;3632;42.724;23.298;2023-12-29T12:07:02;49.73;;;42.67;;
7181;SDS011;3632;42.724;23.298;2023-12-29T12:09:30;54.17;;;44.27;;
7181;SDS011;3632;42.724;23.298;2023-12-29T12:11:58;53.33;;;43.20;;
7181;SDS011;3632;42.724;23.298;2023-12-29T12:17:29;52.20;;;44.03;;
7181;SDS011;3632;42.724;23.298;2023-12-29T12:19:57;51.03;;;43.17;;
7181;SDS011;3632;42.724;23.298;2023-12-29T12:22:24;56.13;;;42.93;;
7181;SDS011;3632;42.724;23.298;2023-12-29T12:24:55;52.67;;;42.83;;
7181;SDS011;3632;42.724;23.298;2023-12-29T12:27:22;52.63;;;42.73;;
7181;SDS011;3632;42.724;23.298;2023-12-29T12:29:51;49.63;;;41.37;;
7181;SDS011;3632;42.724;23.298;2023-12-29T12:32:22;48.23;;;40.73;;
7181;SDS011;3632;42.724;23.298;2023-12-29T12:34:51;47.77;;;41.50;;
7181;SDS011;3632;42.724;23.298;2023-12-29T12:37:21;56.20;;;42.80;;
7181;SDS011;3632;42.724;23.298;2023-12-29T12:39:48;49.27;;;42.50;;
7181;SDS011;3632;42.724;23.298;2023-12-29T12:42:15;55.57;;;41.07;;
7181;SDS011;3632;42.724;23.298;2023-12-29T12:44:49;52.30;;;42.03;;
7181;SDS011;3632;42.724;23.298;2023-12-29T12:47:25;50.73;;;42.10;;
7181;SDS011;3632;42.724;23.298;2023-12-29T12:49:55;54.83;;;43.50;;
7181;SDS011;3632;42.724;23.298;2023-12-29T12:52:22;48.00;;;39.37;;
7181;SDS011;3632;42.724;23.298;2023-12-29T12:54:49;42.97;;;37.60;;
7181;SDS011;3632;42.724;23.298;2023-12-29T12:57:20;45.40;;;36.90;;
7181;SDS011;3632;42.724;23.298;2023-12-29T12:59:47;39.80;;;34.47;;
7181;SDS011;3632;42.724;23.298;2023-12-29T13:02:15;40.00;;;33.47;;
7181;SDS011;3632;42.724;23.298;2023-12-29T13:04:42;42.30;;;31.87;;
7181;SDS011;3632;42.724;23.298;2023-12-29T13:07:11;37.07;;;32.17;;
7181;SDS011;3632;42.724;23.298;2023-12-29T13:09:41;42.10;;;32.37;;
7181;SDS011;3632;42.724;23.298;2023-12-29T13:12:09;41.77;;;34.00;;
7181;SDS011;3632;42.724;23.298;2023-12-29T13:14:36;38.63;;;33.97;;
7181;SDS011;3632;42.724;23.298;2023-12-29T13:17:07;39.90;;;33.57;;
7181;SDS011;3632;42.724;23.298;2023-12-29T13:19:35;40.93;;;33.10;;
7181;SDS011;3632;42.724;23.298;2023-12-29T13:22:05;39.67;;;32.80;;
7181;SDS011;3632;42.724;23.298;2023-12-29T13:24:34;32.80;;;26.23;;
7181;SDS011;3632;42.724;23.298;2023-12-29T13:27:03;31.53;;;26.60;;
7181;SDS011;3632;42.724;23.298;2023-12-29T13:29:31;35.90;;;26.73;;
7181;SDS011;3632;42.724;23.298;2023-12-29T13:32:02;33.20;;;29.43;;
7181;SDS011;3632;42.724;23.298;2023-12-29T13:34:35;36.33;;;29.90;;
7181;SDS011;3632;42.724;23.298;2023-12-29T13:37:08;42.20;;;31.63;;
7181;SDS011;3632;42.724;23.298;2023-12-29T13:39:44;39.53;;;29.90;;
7181;SDS011;3632;42.724;23.298;2023-12-29T13:42:17;42.20;;;31.60;;
7181;SDS011;3632;42.724;23.298;2023-12-29T13:44:45;44.80;;;31.27;;
7181;SDS011;3632;42.724;23.298;2023-12-29T13:47:13;40.17;;;34.47;;
7181;SDS011;3632;42.724;23.298;2023-12-29T13:49:40;45.63;;;31.17;;
7181;SDS011;3632;42.724;23.298;2023-12-29T13:52:08;46.00;;;31.93;;
7181;SDS011;3632;42.724;23.298;2023-12-29T13:54:40;42.07;;;31.30;;
7181;SDS011;3632;42.724;23.298;2023-12-29T13:57:09;44.77;;;31.70;;
7181;SDS011;3632;42.724;23.298;2023-12-29T13:59:36;35.87;;;27.30;;
7181;SDS011;3632;42.724;23.298;2023-12-29T14:02:03;46.00;;;30.37;;
7181;SDS011;3632;42.724;23.298;2023-12-29T14:04:46;48.53;;;31.77;;
7181;SDS011;3632;42.724;23.298;2023-12-29T14:07:13;50.43;;;30.63;;
7181;SDS011;3632;42.724;23.298;2023-12-29T14:09:41;47.40;;;31.80;;
7181;SDS011;3632;42.724;23.298;2023-12-29T14:12:09;45.33;;;32.87;;
7181;SDS011;3632;42.724;23.298;2023-12-29T14:14:36;42.40;;;32.93;;
7181;SDS011;3632;42.724;23.298;2023-12-29T14:17:02;51.23;;;33.07;;
7181;SDS011;3632;42.724;23.298;2023-12-29T14:19:34;44.40;;;31.83;;
7181;SDS011;3632;42.724;23.298;2023-12-29T14:22:01;45.07;;;31.50;;
7181;SDS011;3632;42.724;23.298;2023-12-29T14:24:28;50.50;;;31.23;;
7181;SDS011;3632;42.724;23.298;2023-12-29T14:26:55;56.57;;;33.27;;
7181;SDS011;3632;42.724;23.298;2023-12-29T14:29:25;50.00;;;33.10;;
7181;SDS011;3632;42.724;23.298;2023-12-29T14:31:52;55.93;;;32.57;;
7181;SDS011;3632;42.724;23.298;2023-12-29T14:34:21;54.30;;;33.20;;
7181;SDS011;3632;42.724;23.298;2023-12-29T14:36:48;55.60;;;32.77;;
7181;SDS011;3632;42.724;23.298;2023-12-29T14:39:15;57.77;;;35.47;;
7181;SDS011;3632;42.724;23.298;2023-12-29T14:41:41;63.50;;;37.73;;